sensor_id;sensor_type;location;lat;lon;timestamp;temperature;humidity
19090;DHT22;9677;50.656;13.064;2023-05-07T00:00:41;17.80;47.30
19090;DHT22;9677;50.656;13.064;2023-05-07T00:03:10;17.80;47.30
19090;DHT22;9677;50.656;13.064;2023-05-07T00:05:42;17.80;47.30
19090;DHT22;9677;50.656;13.064;2023-05-07T00:08:11;17.70;47.30
19090;DHT22;9677;50.656;13.064;2023-05-07T00:10:40;17.90;47.40
19090;DHT22;9677;50.656;13.064;2023-05-07T00:13:11;17.70;47.40
19090;DHT22;9677;50.656;13.064;2023-05-07T00:15:40;17.60;47.30
19090;DHT22;9677;50.656;13.064;2023-05-07T00:18:09;17.60;47.30
19090;DHT22;9677;50.656;13.064;2023-05-07T00:20:38;17.70;47.40
19090;DHT22;9677;50.656;13.064;2023-05-07T00:23:08;17.60;47.40
19090;DHT22;9677;50.656;13.064;2023-05-07T00:25:37;17.80;47.70
19090;DHT22;9677;50.656;13.064;2023-05-07T00:28:06;17.50;47.40
19090;DHT22;9677;50.656;13.064;2023-05-07T00:30:34;17.70;47.50
19090;DHT22;9677;50.656;13.064;2023-05-07T00:33:03;17.50;47.40
19090;DHT22;9677;50.656;13.064;2023-05-07T00:35:32;17.50;47.50
19090;DHT22;9677;50.656;13.064;2023-05-07T00:38:00;17.40;47.40
19090;DHT22;9677;50.656;13.064;2023-05-07T00:40:30;17.40;47.50
19090;DHT22;9677;50.656;13.064;2023-05-07T00:42:59;17.30;47.50
19090;DHT22;9677;50.656;13.064;2023-05-07T00:45:28;17.30;47.50
19090;DHT22;9677;50.656;13.064;2023-05-07T00:47:59;17.30;47.60
19090;DHT22;9677;50.656;13.064;2023-05-07T00:50:29;17.20;47.70
19090;DHT22;9677;50.656;13.064;2023-05-07T00:52:59;17.20;48.30
19090;DHT22;9677;50.656;13.064;2023-05-07T00:55:30;17.30;47.80
19090;DHT22;9677;50.656;13.064;2023-05-07T00:57:59;17.10;47.70
19090;DHT22;9677;50.656;13.064;2023-05-07T01:00:27;17.10;47.70
19090;DHT22;9677;50.656;13.064;2023-05-07T01:02:56;17.00;47.70
19090;DHT22;9677;50.656;13.064;2023-05-07T01:05:26;17.00;47.80
19090;DHT22;9677;50.656;13.064;2023-05-07T01:07:57;17.00;47.90
19090;DHT22;9677;50.656;13.064;2023-05-07T01:10:26;17.00;48.00
19090;DHT22;9677;50.656;13.064;2023-05-07T01:12:57;16.90;48.00
19090;DHT22;9677;50.656;13.064;2023-05-07T01:15:27;16.90;48.10
19090;DHT22;9677;50.656;13.064;2023-05-07T01:17:56;16.80;48.10
19090;DHT22;9677;50.656;13.064;2023-05-07T01:20:31;16.80;48.20
19090;DHT22;9677;50.656;13.064;2023-05-07T01:23:03;16.80;48.20
19090;DHT22;9677;50.656;13.064;2023-05-07T01:25:32;16.80;48.90
19090;DHT22;9677;50.656;13.064;2023-05-07T01:28:01;16.90;48.30
19090;DHT22;9677;50.656;13.064;2023-05-07T01:30:34;16.80;48.30
19090;DHT22;9677;50.656;13.064;2023-05-07T01:33:09;16.80;48.40
19090;DHT22;9677;50.656;13.064;2023-05-07T01:35:43;16.70;48.40
19090;DHT22;9677;50.656;13.064;2023-05-07T01:38:14;16.80;48.50
19090;DHT22;9677;50.656;13.064;2023-05-07T01:40:43;16.80;48.50
19090;DHT22;9677;50.656;13.064;2023-05-07T01:43:12;16.70;48.40
19090;DHT22;9677;50.656;13.064;2023-05-07T01:45:41;16.70;48.40
19090;DHT22;9677;50.656;13.064;2023-05-07T01:48:11;17.00;48.60
19090;DHT22;9677;50.656;13.064;2023-05-07T01:50:41;16.70;48.50
19090;DHT22;9677;50.656;13.064;2023-05-07T01:53:11;16.90;48.70
19090;DHT22;9677;50.656;13.064;2023-05-07T01:55:40;16.70;48.50
19090;DHT22;9677;50.656;13.064;2023-05-07T01:58:09;16.60;48.50
19090;DHT22;9677;50.656;13.064;2023-05-07T02:00:38;16.80;48.60
19090;DHT22;9677;50.656;13.064;2023-05-07T02:03:07;16.70;48.50
19090;DHT22;9677;50.656;13.064;2023-05-07T02:05:44;16.80;48.60
19090;DHT22;9677;50.656;13.064;2023-05-07T02:08:28;16.70;48.50
19090;DHT22;9677;50.656;13.064;2023-05-07T02:10:59;16.70;48.50
19090;DHT22;9677;50.656;13.064;2023-05-07T02:13:29;16.60;48.60
19090;DHT22;9677;50.656;13.064;2023-05-07T02:16:00;16.60;48.60
19090;DHT22;9677;50.656;13.064;2023-05-07T02:18:28;16.70;48.60
19090;DHT22;9677;50.656;13.064;2023-05-07T02:20:57;16.60;48.70
19090;DHT22;9677;50.656;13.064;2023-05-07T02:23:26;16.70;48.70
19090;DHT22;9677;50.656;13.064;2023-05-07T02:25:54;16.60;48.70
19090;DHT22;9677;50.656;13.064;2023-05-07T02:28:24;16.60;48.70
19090;DHT22;9677;50.656;13.064;2023-05-07T02:31:03;16.60;48.80
19090;DHT22;9677;50.656;13.064;2023-05-07T02:33:33;16.60;48.80
19090;DHT22;9677;50.656;13.064;2023-05-07T02:36:06;16.60;48.80
19090;DHT22;9677;50.656;13.064;2023-05-07T02:38:39;16.60;48.80
19090;DHT22;9677;50.656;13.064;2023-05-07T02:41:07;16.60;48.80
19090;DHT22;9677;50.656;13.064;2023-05-07T02:43:37;16.70;48.90
19090;DHT22;9677;50.656;13.064;2023-05-07T02:46:07;16.60;48.80
19090;DHT22;9677;50.656;13.064;2023-05-07T02:48:40;16.60;48.90
19090;DHT22;9677;50.656;13.064;2023-05-07T02:51:08;16.60;48.90
19090;DHT22;9677;50.656;13.064;2023-05-07T02:53:39;16.60;48.90
19090;DHT22;9677;50.656;13.064;2023-05-07T02:56:07;16.60;48.90
19090;DHT22;9677;50.656;13.064;2023-05-07T02:58:37;16.60;49.00
19090;DHT22;9677;50.656;13.064;2023-05-07T03:01:08;16.60;48.90
19090;DHT22;9677;50.656;13.064;2023-05-07T03:03:47;16.60;49.00
19090;DHT22;9677;50.656;13.064;2023-05-07T03:06:16;16.60;48.90
19090;DHT22;9677;50.656;13.064;2023-05-07T03:08:44;16.60;48.90
19090;DHT22;9677;50.656;13.064;2023-05-07T03:11:12;16.50;48.90
19090;DHT22;9677;50.656;13.064;2023-05-07T03:13:42;16.60;49.00
19090;DHT22;9677;50.656;13.064;2023-05-07T03:16:11;16.60;49.00
19090;DHT22;9677;50.656;13.064;2023-05-07T03:18:39;16.60;49.00
19090;DHT22;9677;50.656;13.064;2023-05-07T03:21:08;16.60;48.90
19090;DHT22;9677;50.656;13.064;2023-05-07T03:23:36;16.60;49.00
19090;DHT22;9677;50.656;13.064;2023-05-07T03:26:05;16.60;49.00
19090;DHT22;9677;50.656;13.064;2023-05-07T03:28:33;16.60;49.00
19090;DHT22;9677;50.656;13.064;2023-05-07T03:31:06;16.60;49.00
19090;DHT22;9677;50.656;13.064;2023-05-07T03:33:34;16.50;49.00
19090;DHT22;9677;50.656;13.064;2023-05-07T03:36:03;16.50;49.00
19090;DHT22;9677;50.656;13.064;2023-05-07T03:38:32;16.50;49.10
19090;DHT22;9677;50.656;13.064;2023-05-07T03:41:00;16.50;49.00
19090;DHT22;9677;50.656;13.064;2023-05-07T03:43:29;16.50;49.10
19090;DHT22;9677;50.656;13.064;2023-05-07T03:46:05;16.50;49.20
19090;DHT22;9677;50.656;13.064;2023-05-07T03:48:34;16.50;49.80
19090;DHT22;9677;50.656;13.064;2023-05-07T03:51:02;16.50;49.20
19090;DHT22;9677;50.656;13.064;2023-05-07T03:53:32;16.50;49.20
19090;DHT22;9677;50.656;13.064;2023-05-07T03:56:01;16.60;49.20
19090;DHT22;9677;50.656;13.064;2023-05-07T03:58:33;16.50;49.10
19090;DHT22;9677;50.656;13.064;2023-05-07T04:01:08;16.60;49.00
19090;DHT22;9677;50.656;13.064;2023-05-07T04:03:37;16.50;49.60
19090;DHT22;9677;50.656;13.064;2023-05-07T04:06:05;16.50;48.90
19090;DHT22;9677;50.656;13.064;2023-05-07T04:08:35;16.50;49.00
19090;DHT22;9677;50.656;13.064;2023-05-07T04:11:05;16.50;49.00
19090;DHT22;9677;50.656;13.064;2023-05-07T04:13:35;16.50;49.10
19090;DHT22;9677;50.656;13.064;2023-05-07T04:16:07;16.50;49.10
19090;DHT22;9677;50.656;13.064;2023-05-07T04:18:37;16.50;49.10
19090;DHT22;9677;50.656;13.064;2023-05-07T04:21:05;16.50;49.10
19090;DHT22;9677;50.656;13.064;2023-05-07T04:23:37;16.50;49.10
19090;DHT22;9677;50.656;13.064;2023-05-07T04:26:09;16.50;49.00
19090;DHT22;9677;50.656;13.064;2023-05-07T04:28:41;16.70;49.20
19090;DHT22;9677;50.656;13.064;2023-05-07T04:31:11;16.50;49.10
19090;DHT22;9677;50.656;13.064;2023-05-07T04:33:40;16.50;49.20
19090;DHT22;9677;50.656;13.064;2023-05-07T04:36:12;16.50;49.10
19090;DHT22;9677;50.656;13.064;2023-05-07T04:38:47;16.50;49.10
19090;DHT22;9677;50.656;13.064;2023-05-07T04:41:17;16.50;49.10
19090;DHT22;9677;50.656;13.064;2023-05-07T04:43:45;16.50;49.10
19090;DHT22;9677;50.656;13.064;2023-05-07T04:46:17;16.50;49.10
19090;DHT22;9677;50.656;13.064;2023-05-07T04:48:47;16.50;49.20
19090;DHT22;9677;50.656;13.064;2023-05-07T04:51:15;16.80;49.30
19090;DHT22;9677;50.656;13.064;2023-05-07T04:53:44;16.50;49.10
19090;DHT22;9677;50.656;13.064;2023-05-07T04:56:12;16.60;49.00
19090;DHT22;9677;50.656;13.064;2023-05-07T04:58:43;16.60;49.00
19090;DHT22;9677;50.656;13.064;2023-05-07T05:01:11;16.50;48.90
19090;DHT22;9677;50.656;13.064;2023-05-07T05:03:42;16.60;48.90
19090;DHT22;9677;50.656;13.064;2023-05-07T05:06:11;16.60;49.00
19090;DHT22;9677;50.656;13.064;2023-05-07T05:08:40;16.60;48.90
19090;DHT22;9677;50.656;13.064;2023-05-07T05:11:09;16.60;48.70
19090;DHT22;9677;50.656;13.064;2023-05-07T05:13:38;16.50;48.70
19090;DHT22;9677;50.656;13.064;2023-05-07T05:16:11;16.50;48.70
19090;DHT22;9677;50.656;13.064;2023-05-07T05:18:41;16.50;48.80
19090;DHT22;9677;50.656;13.064;2023-05-07T05:21:12;16.50;48.90
19090;DHT22;9677;50.656;13.064;2023-05-07T05:23:42;16.50;48.90
19090;DHT22;9677;50.656;13.064;2023-05-07T05:26:12;16.50;48.90
19090;DHT22;9677;50.656;13.064;2023-05-07T05:28:40;16.50;49.00
19090;DHT22;9677;50.656;13.064;2023-05-07T05:31:09;16.80;49.10
19090;DHT22;9677;50.656;13.064;2023-05-07T05:33:38;16.50;48.90
19090;DHT22;9677;50.656;13.064;2023-05-07T05:36:10;16.70;49.10
19090;DHT22;9677;50.656;13.064;2023-05-07T05:38:40;16.50;49.00
19090;DHT22;9677;50.656;13.064;2023-05-07T05:41:10;16.50;49.00
19090;DHT22;9677;50.656;13.064;2023-05-07T05:43:38;16.50;49.00
19090;DHT22;9677;50.656;13.064;2023-05-07T05:46:07;16.50;49.00
19090;DHT22;9677;50.656;13.064;2023-05-07T05:48:38;16.60;49.10
19090;DHT22;9677;50.656;13.064;2023-05-07T05:51:09;16.60;49.20
19090;DHT22;9677;50.656;13.064;2023-05-07T05:53:38;16.60;49.20
19090;DHT22;9677;50.656;13.064;2023-05-07T05:56:07;16.60;49.20
19090;DHT22;9677;50.656;13.064;2023-05-07T05:58:37;16.60;49.10
19090;DHT22;9677;50.656;13.064;2023-05-07T06:01:07;16.70;49.10
19090;DHT22;9677;50.656;13.064;2023-05-07T06:03:37;16.70;49.10
19090;DHT22;9677;50.656;13.064;2023-05-07T06:06:12;16.70;49.10
19090;DHT22;9677;50.656;13.064;2023-05-07T06:08:43;16.80;49.20
19090;DHT22;9677;50.656;13.064;2023-05-07T06:11:14;16.80;49.10
19090;DHT22;9677;50.656;13.064;2023-05-07T06:13:45;16.80;49.00
19090;DHT22;9677;50.656;13.064;2023-05-07T06:16:14;16.90;49.10
19090;DHT22;9677;50.656;13.064;2023-05-07T06:18:43;16.90;49.00
19090;DHT22;9677;50.656;13.064;2023-05-07T06:21:15;16.90;49.00
19090;DHT22;9677;50.656;13.064;2023-05-07T06:23:43;17.00;48.90
19090;DHT22;9677;50.656;13.064;2023-05-07T06:26:12;16.90;48.80
19090;DHT22;9677;50.656;13.064;2023-05-07T06:28:43;17.00;48.70
19090;DHT22;9677;50.656;13.064;2023-05-07T06:31:14;17.00;48.70
19090;DHT22;9677;50.656;13.064;2023-05-07T06:33:49;17.00;49.30
19090;DHT22;9677;50.656;13.064;2023-05-07T06:36:20;17.00;48.70
19090;DHT22;9677;50.656;13.064;2023-05-07T06:38:48;17.00;48.80
19090;DHT22;9677;50.656;13.064;2023-05-07T06:41:17;17.00;48.80
19090;DHT22;9677;50.656;13.064;2023-05-07T06:43:45;17.00;48.90
19090;DHT22;9677;50.656;13.064;2023-05-07T06:46:31;17.10;48.90
19090;DHT22;9677;50.656;13.064;2023-05-07T06:48:59;17.10;49.50
19090;DHT22;9677;50.656;13.064;2023-05-07T06:51:30;17.20;49.00
19090;DHT22;9677;50.656;13.064;2023-05-07T06:54:02;17.20;48.80
19090;DHT22;9677;50.656;13.064;2023-05-07T06:56:32;17.20;48.80
19090;DHT22;9677;50.656;13.064;2023-05-07T06:59:03;17.20;48.80
19090;DHT22;9677;50.656;13.064;2023-05-07T07:01:35;17.30;48.80
19090;DHT22;9677;50.656;13.064;2023-05-07T07:04:05;17.30;48.70
19090;DHT22;9677;50.656;13.064;2023-05-07T07:06:36;17.60;48.90
19090;DHT22;9677;50.656;13.064;2023-05-07T07:09:09;17.30;48.70
19090;DHT22;9677;50.656;13.064;2023-05-07T07:11:37;17.40;48.80
19090;DHT22;9677;50.656;13.064;2023-05-07T07:14:06;17.30;48.70
19090;DHT22;9677;50.656;13.064;2023-05-07T07:16:41;17.70;48.90
19090;DHT22;9677;50.656;13.064;2023-05-07T07:19:09;17.40;48.70
19090;DHT22;9677;50.656;13.064;2023-05-07T07:21:39;17.40;48.70
19090;DHT22;9677;50.656;13.064;2023-05-07T07:24:07;17.40;48.70
19090;DHT22;9677;50.656;13.064;2023-05-07T07:26:36;17.50;48.70
19090;DHT22;9677;50.656;13.064;2023-05-07T07:29:04;17.50;48.70
19090;DHT22;9677;50.656;13.064;2023-05-07T07:31:33;17.50;48.70
19090;DHT22;9677;50.656;13.064;2023-05-07T07:34:02;17.70;48.90
19090;DHT22;9677;50.656;13.064;2023-05-07T07:36:30;17.80;48.90
19090;DHT22;9677;50.656;13.064;2023-05-07T07:39:15;17.70;48.80
19090;DHT22;9677;50.656;13.064;2023-05-07T07:41:45;17.70;48.80
19090;DHT22;9677;50.656;13.064;2023-05-07T07:44:14;17.70;48.80
19090;DHT22;9677;50.656;13.064;2023-05-07T07:46:48;17.70;48.70
19090;DHT22;9677;50.656;13.064;2023-05-07T07:49:18;17.80;48.70
19090;DHT22;9677;50.656;13.064;2023-05-07T07:51:47;17.80;48.70
19090;DHT22;9677;50.656;13.064;2023-05-07T07:54:17;17.80;48.60
19090;DHT22;9677;50.656;13.064;2023-05-07T07:56:45;18.00;48.80
19090;DHT22;9677;50.656;13.064;2023-05-07T07:59:14;17.90;48.70
19090;DHT22;9677;50.656;13.064;2023-05-07T08:01:46;17.90;48.60
19090;DHT22;9677;50.656;13.064;2023-05-07T08:04:20;17.90;48.50
19090;DHT22;9677;50.656;13.064;2023-05-07T08:06:49;17.90;48.50
19090;DHT22;9677;50.656;13.064;2023-05-07T08:09:19;18.00;48.60
19090;DHT22;9677;50.656;13.064;2023-05-07T08:11:49;18.00;48.70
19090;DHT22;9677;50.656;13.064;2023-05-07T08:14:17;18.10;48.70
19090;DHT22;9677;50.656;13.064;2023-05-07T08:16:47;18.00;48.70
19090;DHT22;9677;50.656;13.064;2023-05-07T08:19:16;18.00;48.70
19090;DHT22;9677;50.656;13.064;2023-05-07T08:21:44;18.10;48.70
19090;DHT22;9677;50.656;13.064;2023-05-07T08:24:15;18.20;48.70
19090;DHT22;9677;50.656;13.064;2023-05-07T08:26:47;18.20;48.70
19090;DHT22;9677;50.656;13.064;2023-05-07T08:29:16;18.20;48.70
19090;DHT22;9677;50.656;13.064;2023-05-07T08:31:46;18.30;48.70
19090;DHT22;9677;50.656;13.064;2023-05-07T08:34:14;18.60;48.90
19090;DHT22;9677;50.656;13.064;2023-05-07T08:36:45;18.60;48.70
19090;DHT22;9677;50.656;13.064;2023-05-07T08:39:18;18.70;48.60
19090;DHT22;9677;50.656;13.064;2023-05-07T08:41:55;18.80;48.60
19090;DHT22;9677;50.656;13.064;2023-05-07T08:44:26;18.60;48.60
19090;DHT22;9677;50.656;13.064;2023-05-07T08:46:58;18.60;48.50
19090;DHT22;9677;50.656;13.064;2023-05-07T08:49:31;18.80;48.60
19090;DHT22;9677;50.656;13.064;2023-05-07T08:51:59;18.80;48.60
19090;DHT22;9677;50.656;13.064;2023-05-07T08:54:29;19.10;48.90
19090;DHT22;9677;50.656;13.064;2023-05-07T08:57:00;19.00;48.70
19090;DHT22;9677;50.656;13.064;2023-05-07T08:59:31;19.30;48.70
19090;DHT22;9677;50.656;13.064;2023-05-07T09:02:00;19.20;48.60
19090;DHT22;9677;50.656;13.064;2023-05-07T09:04:29;19.30;48.60
19090;DHT22;9677;50.656;13.064;2023-05-07T09:06:59;19.40;49.00
19090;DHT22;9677;50.656;13.064;2023-05-07T09:09:35;19.50;48.50
19090;DHT22;9677;50.656;13.064;2023-05-07T09:12:07;19.70;48.40
19090;DHT22;9677;50.656;13.064;2023-05-07T09:14:38;19.80;48.40
19090;DHT22;9677;50.656;13.064;2023-05-07T09:17:06;19.90;48.40
19090;DHT22;9677;50.656;13.064;2023-05-07T09:19:35;20.20;48.40
19090;DHT22;9677;50.656;13.064;2023-05-07T09:22:06;20.30;48.10
19090;DHT22;9677;50.656;13.064;2023-05-07T09:24:48;20.20;48.00
19090;DHT22;9677;50.656;13.064;2023-05-07T09:27:21;20.40;48.20
19090;DHT22;9677;50.656;13.064;2023-05-07T09:29:50;20.50;48.00
19090;DHT22;9677;50.656;13.064;2023-05-07T09:32:19;20.60;47.70
19090;DHT22;9677;50.656;13.064;2023-05-07T09:34:47;20.90;47.60
19090;DHT22;9677;50.656;13.064;2023-05-07T09:37:19;21.00;47.50
19090;DHT22;9677;50.656;13.064;2023-05-07T09:39:50;21.00;47.30
19090;DHT22;9677;50.656;13.064;2023-05-07T09:42:27;21.30;47.40
19090;DHT22;9677;50.656;13.064;2023-05-07T09:44:59;21.20;47.00
19090;DHT22;9677;50.656;13.064;2023-05-07T09:47:37;21.30;46.90
19090;DHT22;9677;50.656;13.064;2023-05-07T09:50:08;21.30;46.80
19090;DHT22;9677;50.656;13.064;2023-05-07T09:52:40;21.40;46.80
19090;DHT22;9677;50.656;13.064;2023-05-07T09:55:09;21.50;46.70
19090;DHT22;9677;50.656;13.064;2023-05-07T09:57:42;21.60;46.70
19090;DHT22;9677;50.656;13.064;2023-05-07T10:00:12;21.60;46.50
19090;DHT22;9677;50.656;13.064;2023-05-07T10:02:50;21.70;46.30
19090;DHT22;9677;50.656;13.064;2023-05-07T10:05:28;22.00;46.20
19090;DHT22;9677;50.656;13.064;2023-05-07T10:07:59;22.10;46.20
19090;DHT22;9677;50.656;13.064;2023-05-07T10:10:33;22.00;46.20
19090;DHT22;9677;50.656;13.064;2023-05-07T10:13:06;22.00;46.00
19090;DHT22;9677;50.656;13.064;2023-05-07T10:15:41;22.30;46.40
19090;DHT22;9677;50.656;13.064;2023-05-07T10:18:12;22.40;46.40
19090;DHT22;9677;50.656;13.064;2023-05-07T10:20:45;22.60;46.30
19090;DHT22;9677;50.656;13.064;2023-05-07T10:23:21;22.80;46.30
19090;DHT22;9677;50.656;13.064;2023-05-07T10:25:56;22.90;46.10
19090;DHT22;9677;50.656;13.064;2023-05-07T10:28:31;23.10;46.20
19090;DHT22;9677;50.656;13.064;2023-05-07T10:31:11;23.30;45.80
19090;DHT22;9677;50.656;13.064;2023-05-07T10:33:47;23.60;45.40
19090;DHT22;9677;50.656;13.064;2023-05-07T10:36:20;23.60;45.40
19090;DHT22;9677;50.656;13.064;2023-05-07T10:38:51;23.80;45.20
19090;DHT22;9677;50.656;13.064;2023-05-07T10:41:20;23.90;44.80
19090;DHT22;9677;50.656;13.064;2023-05-07T10:43:52;24.00;44.60
19090;DHT22;9677;50.656;13.064;2023-05-07T10:46:28;24.10;44.40
19090;DHT22;9677;50.656;13.064;2023-05-07T10:49:09;24.20;44.30
19090;DHT22;9677;50.656;13.064;2023-05-07T10:52:12;24.40;43.90
19090;DHT22;9677;50.656;13.064;2023-05-07T10:55:19;24.40;44.00
19090;DHT22;9677;50.656;13.064;2023-05-07T10:58:23;24.60;43.50
19090;DHT22;9677;50.656;13.064;2023-05-07T11:01:11;24.70;43.30
19090;DHT22;9677;50.656;13.064;2023-05-07T11:04:12;24.80;43.40
19090;DHT22;9677;50.656;13.064;2023-05-07T11:10:10;25.00;42.70
19090;DHT22;9677;50.656;13.064;2023-05-07T11:12:55;25.20;43.00
19090;DHT22;9677;50.656;13.064;2023-05-07T11:15:41;25.20;42.70
19090;DHT22;9677;50.656;13.064;2023-05-07T11:18:56;25.20;42.60
19090;DHT22;9677;50.656;13.064;2023-05-07T11:21:33;25.30;42.40
19090;DHT22;9677;50.656;13.064;2023-05-07T11:24:11;25.40;42.30
19090;DHT22;9677;50.656;13.064;2023-05-07T11:26:53;25.50;42.50
19090;DHT22;9677;50.656;13.064;2023-05-07T11:29:23;25.50;42.20
19090;DHT22;9677;50.656;13.064;2023-05-07T11:31:57;25.60;42.00
19090;DHT22;9677;50.656;13.064;2023-05-07T11:34:33;25.60;41.90
19090;DHT22;9677;50.656;13.064;2023-05-07T11:37:02;25.70;41.80
19090;DHT22;9677;50.656;13.064;2023-05-07T11:39:41;25.70;41.80
19090;DHT22;9677;50.656;13.064;2023-05-07T11:42:25;25.80;41.80
19090;DHT22;9677;50.656;13.064;2023-05-07T11:44:54;25.90;41.50
19090;DHT22;9677;50.656;13.064;2023-05-07T11:47:22;25.90;41.90
19090;DHT22;9677;50.656;13.064;2023-05-07T11:49:53;26.10;42.00
19090;DHT22;9677;50.656;13.064;2023-05-07T11:52:23;26.10;41.80
19090;DHT22;9677;50.656;13.064;2023-05-07T11:54:53;26.30;41.80
19090;DHT22;9677;50.656;13.064;2023-05-07T11:57:23;26.40;41.60
19090;DHT22;9677;50.656;13.064;2023-05-07T11:59:53;26.50;41.70
19090;DHT22;9677;50.656;13.064;2023-05-07T12:02:22;26.60;41.40
19090;DHT22;9677;50.656;13.064;2023-05-07T12:04:53;26.70;41.00
19090;DHT22;9677;50.656;13.064;2023-05-07T12:07:24;26.70;40.80
19090;DHT22;9677;50.656;13.064;2023-05-07T12:09:53;26.70;40.40
19090;DHT22;9677;50.656;13.064;2023-05-07T12:12:22;26.80;40.40
19090;DHT22;9677;50.656;13.064;2023-05-07T12:14:50;26.80;40.60
19090;DHT22;9677;50.656;13.064;2023-05-07T12:17:18;26.80;40.50
19090;DHT22;9677;50.656;13.064;2023-05-07T12:19:47;26.80;39.90
19090;DHT22;9677;50.656;13.064;2023-05-07T12:22:18;26.80;38.90
19090;DHT22;9677;50.656;13.064;2023-05-07T12:24:47;26.70;39.30
19090;DHT22;9677;50.656;13.064;2023-05-07T12:27:17;26.70;39.80
19090;DHT22;9677;50.656;13.064;2023-05-07T12:29:46;26.60;39.90
19090;DHT22;9677;50.656;13.064;2023-05-07T12:32:15;26.60;40.00
19090;DHT22;9677;50.656;13.064;2023-05-07T12:34:45;26.50;40.10
19090;DHT22;9677;50.656;13.064;2023-05-07T12:37:14;26.60;40.20
19090;DHT22;9677;50.656;13.064;2023-05-07T12:39:47;26.60;39.90
19090;DHT22;9677;50.656;13.064;2023-05-07T12:42:20;26.70;40.00
19090;DHT22;9677;50.656;13.064;2023-05-07T12:44:50;26.60;39.50
19090;DHT22;9677;50.656;13.064;2023-05-07T12:47:20;26.70;39.50
19090;DHT22;9677;50.656;13.064;2023-05-07T12:49:49;26.70;39.70
19090;DHT22;9677;50.656;13.064;2023-05-07T12:52:17;26.60;39.80
19090;DHT22;9677;50.656;13.064;2023-05-07T12:54:48;26.70;39.60
19090;DHT22;9677;50.656;13.064;2023-05-07T12:57:19;26.70;39.50
19090;DHT22;9677;50.656;13.064;2023-05-07T12:59:48;26.70;39.30
19090;DHT22;9677;50.656;13.064;2023-05-07T13:02:16;26.70;39.40
19090;DHT22;9677;50.656;13.064;2023-05-07T13:04:45;26.70;39.60
19090;DHT22;9677;50.656;13.064;2023-05-07T13:07:14;26.60;39.30
19090;DHT22;9677;50.656;13.064;2023-05-07T13:09:43;26.60;39.00
19090;DHT22;9677;50.656;13.064;2023-05-07T13:12:12;26.60;39.20
19090;DHT22;9677;50.656;13.064;2023-05-07T13:14:41;26.60;38.70
19090;DHT22;9677;50.656;13.064;2023-05-07T13:17:09;26.60;38.90
19090;DHT22;9677;50.656;13.064;2023-05-07T13:19:37;26.50;38.80
19090;DHT22;9677;50.656;13.064;2023-05-07T13:22:06;26.50;38.80
19090;DHT22;9677;50.656;13.064;2023-05-07T13:24:34;26.40;38.80
19090;DHT22;9677;50.656;13.064;2023-05-07T13:27:02;26.40;39.10
19090;DHT22;9677;50.656;13.064;2023-05-07T13:29:33;26.30;39.10
19090;DHT22;9677;50.656;13.064;2023-05-07T13:32:01;26.30;39.20
19090;DHT22;9677;50.656;13.064;2023-05-07T13:34:30;26.30;39.30
19090;DHT22;9677;50.656;13.064;2023-05-07T13:36:58;26.30;39.20
19090;DHT22;9677;50.656;13.064;2023-05-07T13:39:26;26.30;39.30
19090;DHT22;9677;50.656;13.064;2023-05-07T13:41:55;26.30;39.10
19090;DHT22;9677;50.656;13.064;2023-05-07T13:44:23;26.30;38.90
19090;DHT22;9677;50.656;13.064;2023-05-07T13:46:53;26.40;39.00
19090;DHT22;9677;50.656;13.064;2023-05-07T13:49:21;26.30;39.00
19090;DHT22;9677;50.656;13.064;2023-05-07T13:51:50;26.30;39.20
19090;DHT22;9677;50.656;13.064;2023-05-07T13:54:19;26.30;38.80
19090;DHT22;9677;50.656;13.064;2023-05-07T13:56:47;26.30;38.80
19090;DHT22;9677;50.656;13.064;2023-05-07T13:59:16;26.30;38.90
19090;DHT22;9677;50.656;13.064;2023-05-07T14:01:47;26.40;39.10
19090;DHT22;9677;50.656;13.064;2023-05-07T14:04:17;26.40;38.90
19090;DHT22;9677;50.656;13.064;2023-05-07T14:06:46;26.40;38.50
19090;DHT22;9677;50.656;13.064;2023-05-07T14:09:14;26.30;38.40
19090;DHT22;9677;50.656;13.064;2023-05-07T14:11:42;26.30;38.40
19090;DHT22;9677;50.656;13.064;2023-05-07T14:14:11;26.20;38.40
19090;DHT22;9677;50.656;13.064;2023-05-07T14:16:39;26.20;38.50
19090;DHT22;9677;50.656;13.064;2023-05-07T14:19:07;26.10;38.40
19090;DHT22;9677;50.656;13.064;2023-05-07T14:21:37;26.10;38.30
19090;DHT22;9677;50.656;13.064;2023-05-07T14:24:06;26.00;38.20
19090;DHT22;9677;50.656;13.064;2023-05-07T14:26:35;25.90;38.10
19090;DHT22;9677;50.656;13.064;2023-05-07T14:29:04;25.90;38.10
19090;DHT22;9677;50.656;13.064;2023-05-07T14:31:32;25.80;38.00
19090;DHT22;9677;50.656;13.064;2023-05-07T14:34:00;25.70;38.20
19090;DHT22;9677;50.656;13.064;2023-05-07T14:36:29;25.60;38.30
19090;DHT22;9677;50.656;13.064;2023-05-07T14:38:59;25.60;38.40
19090;DHT22;9677;50.656;13.064;2023-05-07T14:41:29;25.60;38.50
19090;DHT22;9677;50.656;13.064;2023-05-07T14:43:58;25.50;38.50
19090;DHT22;9677;50.656;13.064;2023-05-07T14:46:26;25.50;38.40
19090;DHT22;9677;50.656;13.064;2023-05-07T14:48:55;25.40;38.20
19090;DHT22;9677;50.656;13.064;2023-05-07T14:51:24;25.40;38.30
19090;DHT22;9677;50.656;13.064;2023-05-07T14:53:54;25.30;39.00
19090;DHT22;9677;50.656;13.064;2023-05-07T14:56:24;25.30;38.50
19090;DHT22;9677;50.656;13.064;2023-05-07T14:58:52;25.20;38.50
19090;DHT22;9677;50.656;13.064;2023-05-07T15:01:21;25.30;38.70
19090;DHT22;9677;50.656;13.064;2023-05-07T15:03:49;25.20;38.60
19090;DHT22;9677;50.656;13.064;2023-05-07T15:06:18;25.20;38.20
19090;DHT22;9677;50.656;13.064;2023-05-07T15:08:46;25.10;38.00
19090;DHT22;9677;50.656;13.064;2023-05-07T15:11:15;25.10;38.20
19090;DHT22;9677;50.656;13.064;2023-05-07T15:13:45;24.90;38.10
19090;DHT22;9677;50.656;13.064;2023-05-07T15:16:13;24.90;38.20
19090;DHT22;9677;50.656;13.064;2023-05-07T15:18:42;24.90;38.40
19090;DHT22;9677;50.656;13.064;2023-05-07T15:21:11;24.80;38.40
19090;DHT22;9677;50.656;13.064;2023-05-07T15:23:40;24.80;38.40
19090;DHT22;9677;50.656;13.064;2023-05-07T15:26:09;24.80;38.50
19090;DHT22;9677;50.656;13.064;2023-05-07T15:28:37;24.80;38.60
19090;DHT22;9677;50.656;13.064;2023-05-07T15:31:08;24.80;38.60
19090;DHT22;9677;50.656;13.064;2023-05-07T15:33:36;24.60;38.50
19090;DHT22;9677;50.656;13.064;2023-05-07T15:36:05;24.70;38.60
19090;DHT22;9677;50.656;13.064;2023-05-07T15:38:34;24.60;38.60
19090;DHT22;9677;50.656;13.064;2023-05-07T15:41:02;24.60;38.50
19090;DHT22;9677;50.656;13.064;2023-05-07T15:43:31;24.50;38.60
19090;DHT22;9677;50.656;13.064;2023-05-07T15:45:59;24.50;38.60
19090;DHT22;9677;50.656;13.064;2023-05-07T15:48:29;24.50;38.60
19090;DHT22;9677;50.656;13.064;2023-05-07T15:50:58;24.40;38.60
19090;DHT22;9677;50.656;13.064;2023-05-07T15:53:27;24.40;38.80
19090;DHT22;9677;50.656;13.064;2023-05-07T15:55:55;24.40;38.80